createdAt,value
2023-02-12T00:02:20.707Z,6.29
2023-02-12T00:04:47.729Z,6.36
2023-02-12T00:07:14.064Z,6.32
2023-02-12T00:09:40.392Z,6.32
2023-02-12T00:12:06.912Z,6.28
2023-02-12T00:14:34.508Z,6.25
2023-02-12T00:17:00.827Z,6.25
2023-02-12T00:19:27.134Z,6.27
2023-02-12T00:21:53.435Z,6.27
2023-02-12T00:24:19.769Z,6.37
2023-02-12T00:26:48.000Z,6.38
2023-02-12T00:29:14.478Z,6.42
2023-02-12T00:31:40.876Z,6.47
2023-02-12T00:34:07.316Z,6.45
2023-02-12T00:36:33.711Z,6.52
2023-02-12T00:39:00.126Z,6.54
2023-02-12T00:41:26.598Z,6.54
2023-02-12T00:43:52.981Z,6.51
2023-02-12T00:46:19.812Z,6.50
2023-02-12T00:48:46.148Z,6.47
2023-02-12T00:51:12.490Z,6.51
2023-02-12T00:53:38.841Z,6.55
2023-02-12T00:56:05.246Z,6.56
2023-02-12T00:58:31.680Z,6.62
2023-02-12T01:00:58.058Z,6.62
2023-02-12T01:03:24.401Z,6.69
2023-02-12T01:05:50.721Z,6.58
2023-02-12T01:08:17.236Z,6.54
2023-02-12T01:10:43.921Z,6.55
2023-02-12T01:13:12.671Z,6.56
2023-02-12T01:15:38.989Z,6.55
2023-02-12T01:18:05.300Z,6.58
2023-02-12T01:20:31.713Z,6.54
2023-02-12T01:22:58.117Z,6.53
2023-02-12T01:25:24.423Z,6.50
2023-02-12T01:27:53.534Z,6.52
2023-02-12T01:30:22.105Z,6.53
2023-02-12T01:32:48.438Z,6.54
2023-02-12T01:35:14.744Z,6.52
2023-02-12T01:37:41.299Z,6.46
2023-02-12T01:40:08.166Z,6.49
2023-02-12T01:42:34.617Z,6.50
2023-02-12T01:45:30.480Z,6.45
2023-02-12T01:47:59.774Z,6.49
2023-02-12T01:50:26.138Z,6.47
2023-02-12T01:52:54.658Z,6.46
2023-02-12T01:55:21.469Z,6.52
2023-02-12T01:57:48.188Z,6.43
2023-02-12T02:00:16.772Z,6.60
2023-02-12T02:02:44.971Z,6.47
2023-02-12T02:05:12.880Z,6.48
2023-02-12T02:07:40.422Z,6.42
2023-02-12T02:10:07.178Z,6.48
2023-02-12T02:12:51.956Z,6.51
2023-02-12T02:15:18.307Z,6.44
2023-02-12T02:17:47.363Z,6.60
2023-02-12T02:20:31.053Z,6.51
2023-02-12T02:23:00.064Z,6.56
2023-02-12T02:25:36.369Z,6.52
2023-02-12T02:28:26.690Z,6.53
2023-02-12T02:31:11.683Z,6.53
2023-02-12T02:33:41.971Z,6.56
2023-02-12T02:36:34.650Z,6.65
2023-02-12T02:39:04.765Z,6.65
2023-02-12T02:41:38.341Z,6.65
2023-02-12T02:44:07.776Z,6.61
2023-02-12T02:46:40.484Z,6.64
2023-02-12T02:49:09.389Z,6.64
2023-02-12T02:51:39.907Z,6.59
2023-02-12T02:54:18.961Z,6.61
2023-02-12T02:56:47.678Z,6.62
2023-02-12T02:59:31.707Z,6.70
2023-02-12T03:02:01.651Z,6.60
2023-02-12T03:04:32.389Z,6.54
2023-02-12T03:07:02.924Z,6.58
2023-02-12T03:09:34.154Z,6.58
2023-02-12T03:12:03.730Z,6.77
2023-02-12T03:14:32.601Z,6.73
2023-02-12T03:17:19.178Z,6.73
2023-02-12T03:19:48.775Z,6.62
2023-02-12T03:22:28.201Z,6.58
2023-02-12T03:24:57.444Z,6.58
2023-02-12T03:27:29.509Z,6.59
2023-02-12T03:29:56.250Z,6.46
2023-02-12T03:32:27.786Z,6.54
2023-02-12T03:35:01.468Z,6.51
2023-02-12T03:37:33.100Z,6.50
2023-02-12T03:40:02.143Z,6.55
2023-02-12T03:42:28.488Z,6.48
2023-02-12T03:45:08.624Z,6.50
2023-02-12T03:47:34.955Z,6.53
2023-02-12T03:50:01.215Z,6.47
2023-02-12T03:52:29.187Z,6.43
2023-02-12T03:54:55.559Z,6.38
2023-02-12T03:57:24.092Z,6.36
2023-02-12T03:59:51.243Z,6.37
2023-02-12T04:02:18.814Z,6.41
2023-02-12T04:04:46.679Z,6.35
2023-02-12T04:07:13.339Z,6.37
2023-02-12T04:09:39.695Z,6.37
2023-02-12T04:12:08.761Z,6.38
2023-02-12T04:14:43.736Z,6.32
2023-02-12T04:17:10.294Z,6.41
2023-02-12T04:19:55.790Z,6.31
2023-02-12T04:22:27.923Z,6.34
2023-02-12T04:25:09.540Z,6.32
2023-02-12T04:27:40.716Z,6.33
2023-02-12T04:30:13.723Z,6.33
2023-02-12T04:32:40.023Z,6.33
2023-02-12T04:35:19.166Z,6.33
2023-02-12T04:37:49.025Z,6.32
2023-02-12T04:40:17.771Z,6.30
2023-02-12T04:42:45.562Z,6.29
2023-02-12T04:45:12.721Z,6.35
2023-02-12T04:47:39.076Z,6.33
2023-02-12T04:50:05.689Z,6.39
2023-02-12T04:52:31.966Z,6.34
2023-02-12T04:54:58.242Z,6.32
2023-02-12T04:57:24.569Z,6.33
2023-02-12T04:59:50.877Z,6.32
2023-02-12T05:02:17.160Z,6.29
2023-02-12T05:04:43.548Z,6.33
2023-02-12T05:07:10.993Z,6.35
2023-02-12T05:09:37.303Z,6.32
2023-02-12T05:12:03.667Z,6.35
2023-02-12T05:14:30.018Z,6.33
2023-02-12T05:16:56.302Z,6.29
2023-02-12T05:19:22.637Z,6.22
2023-02-12T05:21:50.193Z,6.30
2023-02-12T05:24:16.613Z,6.36
2023-02-12T05:26:43.375Z,6.32
2023-02-12T05:29:09.643Z,6.33
2023-02-12T05:31:36.184Z,6.29
2023-02-12T05:34:02.738Z,6.17
2023-02-12T05:36:29.076Z,6.34
2023-02-12T05:38:57.668Z,6.32
2023-02-12T05:41:24.570Z,6.33
2023-02-12T05:43:50.882Z,6.30
2023-02-12T05:46:21.035Z,6.28
2023-02-12T05:48:47.751Z,6.26
2023-02-12T05:51:16.287Z,6.26
2023-02-12T05:53:42.735Z,6.35
2023-02-12T05:56:11.995Z,6.28
2023-02-12T05:58:38.600Z,6.32
2023-02-12T06:01:09.487Z,6.29
2023-02-12T06:03:35.805Z,6.27
2023-02-12T06:06:02.116Z,6.19
2023-02-12T06:08:28.416Z,6.23
2023-02-12T06:10:54.777Z,6.30
2023-02-12T06:13:21.065Z,6.25
2023-02-12T06:15:47.382Z,6.28
2023-02-12T06:18:13.744Z,6.20
2023-02-12T06:20:40.318Z,6.19
2023-02-12T06:23:06.662Z,6.11
2023-02-12T06:25:33.073Z,6.21
2023-02-12T06:27:59.392Z,6.19
2023-02-12T06:30:25.761Z,6.20
2023-02-12T06:32:52.128Z,6.18
2023-02-12T06:35:18.423Z,6.17
2023-02-12T06:37:44.735Z,6.18
2023-02-12T06:40:11.210Z,6.17
2023-02-12T06:42:37.512Z,6.18
2023-02-12T06:45:04.068Z,6.20
2023-02-12T06:47:30.359Z,6.23
2023-02-12T06:49:56.677Z,6.23
2023-02-12T06:52:23.213Z,6.25
2023-02-12T06:54:49.595Z,6.24
2023-02-12T06:57:15.875Z,6.18
2023-02-12T06:59:42.209Z,6.24
2023-02-12T07:02:09.727Z,6.17
2023-02-12T07:04:37.675Z,6.21
2023-02-12T07:07:04.764Z,6.22
2023-02-12T07:09:31.183Z,6.30
2023-02-12T07:12:00.841Z,6.29
2023-02-12T07:14:28.307Z,6.30
2023-02-12T07:16:57.217Z,6.29
2023-02-12T07:19:23.836Z,6.36
2023-02-12T07:21:50.109Z,6.31
2023-02-12T07:24:18.160Z,6.16
2023-02-12T07:26:44.793Z,6.25
2023-02-12T07:29:11.115Z,6.32
2023-02-12T07:31:37.446Z,6.32
2023-02-12T07:34:03.937Z,6.33
2023-02-12T07:36:31.359Z,6.33
2023-02-12T07:38:58.073Z,6.35
2023-02-12T07:41:28.652Z,6.28
2023-02-12T07:44:07.419Z,6.38
2023-02-12T07:46:35.349Z,6.36
2023-02-12T07:49:04.322Z,6.47
2023-02-12T07:51:32.641Z,6.47
2023-02-12T07:54:00.488Z,6.47
2023-02-12T07:56:30.834Z,6.51
2023-02-12T07:58:58.148Z,6.45
2023-02-12T08:01:31.818Z,6.50
2023-02-12T08:03:59.652Z,6.64
2023-02-12T08:06:27.474Z,6.55
2023-02-12T08:08:54.913Z,6.54
2023-02-12T08:11:21.704Z,6.42
2023-02-12T08:13:48.505Z,6.42
2023-02-12T08:16:16.843Z,6.50
2023-02-12T08:18:43.389Z,6.52
2023-02-12T08:21:10.993Z,6.50
2023-02-12T08:23:37.717Z,6.54
2023-02-12T08:26:13.700Z,6.45
2023-02-12T08:28:41.591Z,6.51
2023-02-12T08:31:09.964Z,6.55
2023-02-12T08:33:36.405Z,6.55
2023-02-12T08:36:10.221Z,6.64
2023-02-12T08:38:37.412Z,6.67
2023-02-12T08:41:04.922Z,6.63
2023-02-12T08:43:31.311Z,6.56
2023-02-12T08:46:05.386Z,6.55
2023-02-12T08:48:32.056Z,6.61
2023-02-12T08:51:24.929Z,6.69
2023-02-12T08:53:52.757Z,6.67
2023-02-12T08:56:19.449Z,6.72
2023-02-12T08:58:45.994Z,6.89
2023-02-12T09:01:13.598Z,6.78
2023-02-12T09:03:39.910Z,6.71
2023-02-12T09:06:08.005Z,6.76
2023-02-12T09:08:34.381Z,6.85
2023-02-12T09:11:03.929Z,6.80
2023-02-12T09:13:30.406Z,6.90
2023-02-12T09:15:56.998Z,6.95
2023-02-12T09:18:23.511Z,7.01
2023-02-12T09:20:49.850Z,6.93
2023-02-12T09:23:16.202Z,6.93
2023-02-12T09:25:43.755Z,6.97
2023-02-12T09:28:10.608Z,6.96
2023-02-12T09:30:37.715Z,7.01
2023-02-12T09:33:04.716Z,6.97
2023-02-12T09:35:31.059Z,6.95
2023-02-12T09:37:57.338Z,6.91
2023-02-12T09:40:32.597Z,7.03
2023-02-12T09:43:19.910Z,7.03
2023-02-12T09:45:57.052Z,7.17
2023-02-12T09:48:35.913Z,7.10
2023-02-12T09:51:05.886Z,7.15
2023-02-12T09:53:32.456Z,7.09
2023-02-12T09:55:58.828Z,7.21
2023-02-12T09:58:38.375Z,7.17
2023-02-12T10:01:15.041Z,7.21
2023-02-12T10:03:42.090Z,7.25
2023-02-12T10:06:11.835Z,7.24
2023-02-12T10:08:50.388Z,7.21
2023-02-12T10:11:35.371Z,7.28
2023-02-12T10:14:14.687Z,7.20
2023-02-12T10:16:43.919Z,7.28
2023-02-12T10:19:28.594Z,7.38
2023-02-12T10:21:59.706Z,7.35
2023-02-12T10:24:34.147Z,7.34
2023-02-12T10:27:05.564Z,7.38
2023-02-12T10:29:33.764Z,7.28
2023-02-12T10:32:26.474Z,7.28
2023-02-12T10:34:54.016Z,7.32
2023-02-12T10:37:32.378Z,7.31
2023-02-12T10:40:02.322Z,7.31
2023-02-12T10:42:35.073Z,7.29
2023-02-12T10:45:01.367Z,7.20
2023-02-12T10:47:27.687Z,7.26
2023-02-12T10:50:03.353Z,7.23
2023-02-12T10:52:29.692Z,7.37
2023-02-12T10:54:56.257Z,7.43
2023-02-12T10:57:23.951Z,7.28
2023-02-12T10:59:53.269Z,7.24
2023-02-12T11:02:24.555Z,7.31
2023-02-12T11:04:51.527Z,7.47
2023-02-12T11:07:18.140Z,7.49
2023-02-12T11:09:48.389Z,7.46
2023-02-12T11:12:19.898Z,7.49
2023-02-12T11:14:54.363Z,7.46
2023-02-12T11:17:24.394Z,7.40
2023-02-12T11:20:02.886Z,7.41
2023-02-12T11:22:30.462Z,7.40
2023-02-12T11:25:01.565Z,7.40
2023-02-12T11:27:29.820Z,7.40
2023-02-12T11:30:11.325Z,7.41
2023-02-12T11:32:37.698Z,7.51
2023-02-12T11:35:10.340Z,7.54
2023-02-12T11:37:39.831Z,7.50
2023-02-12T11:40:06.441Z,7.68
2023-02-12T11:42:35.239Z,7.56
2023-02-12T11:45:02.303Z,7.62
2023-02-12T11:47:30.547Z,7.78
2023-02-12T11:50:02.074Z,7.90
2023-02-12T11:52:31.190Z,7.98
2023-02-12T11:54:59.506Z,7.95
2023-02-12T11:57:35.196Z,7.97
2023-02-12T12:00:02.868Z,8.02
2023-02-12T12:02:35.821Z,8.05
2023-02-12T12:05:12.221Z,7.99
2023-02-12T12:07:41.345Z,8.15
2023-02-12T12:10:13.024Z,8.32
2023-02-12T12:12:45.381Z,8.32
2023-02-12T12:15:30.272Z,8.37
2023-02-12T12:18:18.521Z,8.41
2023-02-12T12:20:52.671Z,8.39
2023-02-12T12:23:21.742Z,8.51
2023-02-12T12:25:51.095Z,8.46
2023-02-12T12:28:41.724Z,8.53
2023-02-12T12:31:10.453Z,8.56
2023-02-12T12:33:55.451Z,8.63
2023-02-12T12:36:47.451Z,8.80
2023-02-12T12:39:21.178Z,8.77
2023-02-12T12:41:48.383Z,8.82
2023-02-12T12:44:25.823Z,8.64
2023-02-12T12:46:52.364Z,8.88
2023-02-12T12:49:45.134Z,9.01
2023-02-12T12:52:11.628Z,8.95
2023-02-12T12:54:38.117Z,8.91
2023-02-12T12:57:23.223Z,9.02
2023-02-12T13:00:09.282Z,8.98
2023-02-12T13:02:55.880Z,8.95
2023-02-12T13:05:24.912Z,8.95
2023-02-12T13:08:20.645Z,8.96
2023-02-12T13:10:56.133Z,8.96
2023-02-12T13:13:33.275Z,8.97
2023-02-12T13:16:14.775Z,9.07
2023-02-12T13:18:49.163Z,9.15
2023-02-12T13:21:38.374Z,9.05
2023-02-12T13:24:04.885Z,9.00
2023-02-12T13:26:43.373Z,8.91
2023-02-12T13:29:15.809Z,9.01
2023-02-12T13:31:48.638Z,9.05
2023-02-12T13:34:16.335Z,9.05
2023-02-12T13:36:43.168Z,9.11
2023-02-12T13:39:15.294Z,9.04
2023-02-12T13:41:45.750Z,9.06
2023-02-12T13:44:21.106Z,8.94
2023-02-12T13:47:06.020Z,9.01
2023-02-12T13:49:41.371Z,9.21
2023-02-12T13:52:12.666Z,9.10
2023-02-12T13:54:48.158Z,8.93
2023-02-12T13:57:16.453Z,9.00
2023-02-12T13:59:49.072Z,8.90
2023-02-12T14:02:27.591Z,8.93
2023-02-12T14:04:53.913Z,8.93
2023-02-12T14:07:21.421Z,8.94
2023-02-12T14:09:50.837Z,8.95
2023-02-12T14:12:28.028Z,8.87
2023-02-12T14:14:54.322Z,8.78
2023-02-12T14:17:29.630Z,8.75
2023-02-12T14:20:05.165Z,8.88
2023-02-12T14:22:31.472Z,8.89
2023-02-12T14:24:58.762Z,8.89
2023-02-12T14:27:36.550Z,8.89
2023-02-12T14:30:09.018Z,9.00
2023-02-12T14:32:53.481Z,9.04
2023-02-12T14:35:25.957Z,8.90
2023-02-12T14:37:53.297Z,8.90
2023-02-12T14:40:34.615Z,8.85
2023-02-12T14:43:02.159Z,8.94
2023-02-12T14:45:36.061Z,8.83
2023-02-12T14:48:03.331Z,8.92
2023-02-12T14:50:35.703Z,8.80
2023-02-12T14:53:20.296Z,8.76
2023-02-12T14:55:47.094Z,8.68
2023-02-12T14:58:17.349Z,8.73
2023-02-12T15:00:45.687Z,8.77
2023-02-12T15:03:17.678Z,8.73
2023-02-12T15:05:59.483Z,8.82
2023-02-12T15:08:25.812Z,8.76
2023-02-12T15:10:59.437Z,8.75
2023-02-12T15:13:30.159Z,8.68
2023-02-12T15:16:08.758Z,8.76
2023-02-12T15:18:41.209Z,8.72
2023-02-12T15:21:20.838Z,8.68
2023-02-12T15:23:56.813Z,8.70
2023-02-12T15:26:24.449Z,8.73
2023-02-12T15:28:52.336Z,8.65
2023-02-12T15:31:26.357Z,8.67
2023-02-12T15:33:54.451Z,8.53
2023-02-12T15:36:22.643Z,8.55
2023-02-12T15:38:51.325Z,8.51
2023-02-12T15:41:50.339Z,8.54
2023-02-12T15:44:21.826Z,8.64
2023-02-12T15:46:54.418Z,8.60
2023-02-12T15:49:22.338Z,8.56
2023-02-12T15:51:49.423Z,8.45
2023-02-12T15:54:21.686Z,8.48
2023-02-12T15:56:48.463Z,8.54
2023-02-12T15:59:19.940Z,8.50
2023-02-12T16:01:53.352Z,8.41
2023-02-12T16:04:19.990Z,8.50
2023-02-12T16:06:46.575Z,8.31
2023-02-12T16:09:17.917Z,8.18
2023-02-12T16:11:45.760Z,8.35
2023-02-12T16:14:31.384Z,8.36
2023-02-12T16:16:59.173Z,8.28
2023-02-12T16:19:26.690Z,8.21
2023-02-12T16:21:55.927Z,8.25
2023-02-12T16:24:25.559Z,8.12
2023-02-12T16:26:52.377Z,8.08
2023-02-12T16:29:19.218Z,8.19
2023-02-12T16:31:55.961Z,8.09
2023-02-12T16:34:38.694Z,8.16
2023-02-12T16:37:28.152Z,7.98
2023-02-12T16:39:54.734Z,7.95
2023-02-12T16:42:26.844Z,7.89
2023-02-12T16:44:53.181Z,7.92
2023-02-12T16:47:21.176Z,7.85
2023-02-12T16:50:01.617Z,7.85
2023-02-12T16:52:31.236Z,8.00
2023-02-12T16:54:57.517Z,7.89
2023-02-12T16:57:24.286Z,7.84
2023-02-12T16:59:50.602Z,7.80
2023-02-12T17:02:17.009Z,7.75
2023-02-12T17:04:44.649Z,7.70
2023-02-12T17:07:21.832Z,7.69
2023-02-12T17:09:48.440Z,7.69
2023-02-12T17:12:14.921Z,7.72
2023-02-12T17:14:41.372Z,7.64
2023-02-12T17:17:07.943Z,7.72
2023-02-12T17:19:34.269Z,7.66
2023-02-12T17:22:00.737Z,7.62
2023-02-12T17:24:28.655Z,7.65
2023-02-12T17:26:55.606Z,7.67
2023-02-12T17:29:23.334Z,7.56
2023-02-12T17:31:50.228Z,7.58
2023-02-12T17:34:16.688Z,7.53
2023-02-12T17:36:44.762Z,7.67
2023-02-12T17:39:12.833Z,7.50
2023-02-12T17:41:40.971Z,7.51
2023-02-12T17:44:07.716Z,7.56
2023-02-12T17:46:34.482Z,7.54
2023-02-12T17:49:00.892Z,7.47
2023-02-12T17:51:27.236Z,7.53
2023-02-12T17:53:53.890Z,7.48
2023-02-12T17:56:21.067Z,7.47
2023-02-12T17:58:47.682Z,7.55
2023-02-12T18:01:15.702Z,7.47
2023-02-12T18:03:42.155Z,7.45
2023-02-12T18:06:09.024Z,7.44
2023-02-12T18:08:35.406Z,7.42
2023-02-12T18:11:05.049Z,7.41
2023-02-12T18:13:31.402Z,7.41
2023-02-12T18:15:58.447Z,7.46
2023-02-12T18:18:24.757Z,7.37
2023-02-12T18:20:51.063Z,7.45
2023-02-12T18:23:17.478Z,7.45
2023-02-12T18:25:44.619Z,7.40
2023-02-12T18:28:11.503Z,7.44
2023-02-12T18:30:39.033Z,7.44
2023-02-12T18:33:05.818Z,7.41
2023-02-12T18:35:33.052Z,7.45
2023-02-12T18:37:59.466Z,7.41
2023-02-12T18:40:25.931Z,7.42
2023-02-12T18:42:52.551Z,7.41
2023-02-12T18:45:19.401Z,7.52
2023-02-12T18:47:45.935Z,7.44
2023-02-12T18:50:12.278Z,7.44
2023-02-12T18:52:38.649Z,7.45
2023-02-12T18:55:06.147Z,7.40
2023-02-12T18:57:32.578Z,7.42
2023-02-12T18:59:58.992Z,7.50
2023-02-12T19:02:25.437Z,7.41
2023-02-12T19:04:51.876Z,7.46
2023-02-12T19:07:18.298Z,7.40
2023-02-12T19:09:44.711Z,7.36
2023-02-12T19:12:11.092Z,7.43
2023-02-12T19:14:37.469Z,7.43
2023-02-12T19:17:03.803Z,7.38
2023-02-12T19:19:30.098Z,7.47
2023-02-12T19:21:56.435Z,7.53
2023-02-12T19:24:22.787Z,7.50
2023-02-12T19:26:51.121Z,7.49
2023-02-12T19:29:18.271Z,7.45
2023-02-12T19:31:45.604Z,7.65
2023-02-12T19:34:19.546Z,7.50
2023-02-12T19:36:46.923Z,7.42
2023-02-12T19:39:14.408Z,7.44
2023-02-12T19:41:41.293Z,7.43
2023-02-12T19:44:34.000Z,7.40
2023-02-12T19:47:00.619Z,7.47
2023-02-12T19:49:27.856Z,7.50
2023-02-12T19:51:54.236Z,7.54
2023-02-12T19:54:21.656Z,7.61
2023-02-12T19:56:48.129Z,7.50
2023-02-12T19:59:16.999Z,7.47
2023-02-12T20:01:43.929Z,7.45
2023-02-12T20:04:14.485Z,7.43
2023-02-12T20:06:41.458Z,7.43
2023-02-12T20:09:08.033Z,7.47
2023-02-12T20:11:37.507Z,7.50
2023-02-12T20:14:04.645Z,7.53
2023-02-12T20:16:36.181Z,7.50
2023-02-12T20:19:07.228Z,7.50
2023-02-12T20:21:33.791Z,7.46
2023-02-12T20:24:01.695Z,7.45
2023-02-12T20:26:29.650Z,7.43
2023-02-12T20:28:55.960Z,7.51
2023-02-12T20:31:23.944Z,7.58
2023-02-12T20:33:54.824Z,7.70
2023-02-12T20:36:23.011Z,7.59
2023-02-12T20:38:51.383Z,7.50
2023-02-12T20:41:17.739Z,7.46
2023-02-12T20:43:44.083Z,7.64
2023-02-12T20:46:11.754Z,7.50
2023-02-12T20:48:38.100Z,7.47
2023-02-12T20:51:12.191Z,7.50
2023-02-12T20:53:38.918Z,7.53
2023-02-12T20:56:07.435Z,7.53
2023-02-12T20:58:33.904Z,7.62
2023-02-12T21:01:04.292Z,7.72
2023-02-12T21:03:30.785Z,7.60
2023-02-12T21:05:57.453Z,7.77
2023-02-12T21:08:24.054Z,7.64
2023-02-12T21:10:57.372Z,7.63
2023-02-12T21:13:25.453Z,7.68
2023-02-12T21:15:51.882Z,7.71
2023-02-12T21:18:22.512Z,7.74
2023-02-12T21:20:48.833Z,7.77
2023-02-12T21:23:15.123Z,7.84
2023-02-12T21:25:41.425Z,7.78
2023-02-12T21:28:07.783Z,7.86
2023-02-12T21:30:34.245Z,7.70
2023-02-12T21:33:00.630Z,7.79
2023-02-12T21:35:27.263Z,7.91
2023-02-12T21:37:53.566Z,7.79
2023-02-12T21:40:20.141Z,7.71
2023-02-12T21:42:46.425Z,7.71
2023-02-12T21:45:12.715Z,7.79
2023-02-12T21:47:39.004Z,7.75
2023-02-12T21:50:05.777Z,7.79
2023-02-12T21:52:32.083Z,7.67
2023-02-12T21:54:58.412Z,7.71
2023-02-12T21:57:24.746Z,7.77
2023-02-12T21:59:51.049Z,7.78
2023-02-12T22:02:17.452Z,7.73
2023-02-12T22:04:45.360Z,7.74
2023-02-12T22:07:11.710Z,7.66
2023-02-12T22:09:38.042Z,7.59
2023-02-12T22:12:04.600Z,7.53
2023-02-12T22:14:31.029Z,7.52
2023-02-12T22:16:57.385Z,7.45
2023-02-12T22:19:23.817Z,7.50
2023-02-12T22:21:51.588Z,7.38
2023-02-12T22:24:18.387Z,7.40
2023-02-12T22:26:44.829Z,7.42
2023-02-12T22:29:13.206Z,7.44
2023-02-12T22:31:40.248Z,7.41
2023-02-12T22:34:08.267Z,7.35
2023-02-12T22:36:36.068Z,7.35
2023-02-12T22:39:02.496Z,7.26
2023-02-12T22:41:29.069Z,7.28
2023-02-12T22:43:58.236Z,7.25
2023-02-12T22:46:24.632Z,7.22
2023-02-12T22:48:50.985Z,7.22
2023-02-12T22:51:22.110Z,7.28
2023-02-12T22:53:48.605Z,7.26
2023-02-12T22:56:15.272Z,7.23
2023-02-12T22:58:42.105Z,7.19
2023-02-12T23:01:10.295Z,7.21
2023-02-12T23:03:39.708Z,7.22
2023-02-12T23:06:07.583Z,7.26
2023-02-12T23:08:34.460Z,7.24
2023-02-12T23:11:00.864Z,7.23
2023-02-12T23:13:29.961Z,7.18
2023-02-12T23:15:57.484Z,7.21
2023-02-12T23:18:24.125Z,7.08
2023-02-12T23:20:51.337Z,7.11
2023-02-12T23:23:17.817Z,7.10
2023-02-12T23:25:44.195Z,7.09
2023-02-12T23:28:10.632Z,7.12
2023-02-12T23:30:37.162Z,7.12
2023-02-12T23:33:03.646Z,7.10
2023-02-12T23:35:30.064Z,7.13
2023-02-12T23:37:56.385Z,7.12
2023-02-12T23:40:22.657Z,7.12
2023-02-12T23:42:49.078Z,7.09
2023-02-12T23:45:15.422Z,7.18
2023-02-12T23:47:41.790Z,7.12
2023-02-12T23:50:08.311Z,7.07
2023-02-12T23:52:34.611Z,7.13
2023-02-12T23:55:00.898Z,7.09
2023-02-12T23:57:27.228Z,7.14
2023-02-12T23:59:54.512Z,7.23
